Time;durP1;ratioP1;P1;durP2;ratioP2;P2;SDS_P1;SDS_P2;PMS_P1;PMS_P2;Temp;Humidity;BMP_temperature;BMP_pressure;BME280_temperature;BME280_humidity;BME280_pressure;Samples;Min_cycle;Max_cycle;Signal;HPM_P1;HPM_P2
2023/06/30 00:01:48;;;;;;;41.33;18.70;;;;;;;19.62;80.20;98456.63;4958141;28;20042;-83
2023/06/30 00:04:18;;;;;;;40.72;19.33;;;;;;;19.64;79.93;98451.69;4954121;28;20039;-82
2023/06/30 00:06:49;;;;;;;29.90;17.75;;;;;;;19.62;80.17;98454.72;4951974;28;20061;-82
2023/06/30 00:09:16;;;;;;;35.90;17.17;;;;;;;19.10;81.21;98453.78;4951832;28;20062;-82
2023/06/30 00:11:41;;;;;;;36.92;17.85;;;;;;;19.25;80.88;98436.31;4959039;28;20065;-83
2023/06/30 00:14:07;;;;;;;29.42;17.65;;;;;;;18.85;81.56;98446.34;4957019;28;20039;-81
2023/06/30 00:16:32;;;;;;;37.13;19.20;;;;;;;18.62;82.41;98445.63;4947610;28;20031;-81
2023/06/30 00:18:58;;;;;;;37.30;18.05;;;;;;;19.04;81.40;98446.09;4959322;28;20038;-82
2023/06/30 00:21:23;;;;;;;32.58;17.85;;;;;;;19.14;81.54;98443.91;4958755;28;20044;-82
2023/06/30 00:23:49;;;;;;;47.60;18.48;;;;;;;18.99;81.41;98438.94;4958218;28;20039;-82
2023/06/30 00:26:14;;;;;;;36.08;17.58;;;;;;;19.22;80.24;98445.84;4945020;28;20050;-82
2023/06/30 00:28:39;;;;;;;33.15;17.38;;;;;;;19.32;79.76;98448.28;4958647;28;20081;-81
2023/06/30 00:31:05;;;;;;;34.40;18.23;;;;;;;19.28;79.97;98444.59;4960230;28;20047;-81
2023/06/30 00:33:30;;;;;;;43.90;18.75;;;;;;;19.20;80.00;98449.97;4961316;28;20035;-81
2023/06/30 00:35:56;;;;;;;35.67;19.35;;;;;;;19.27;79.89;98450.31;4965759;28;20032;-81
2023/06/30 00:38:21;;;;;;;37.15;19.00;;;;;;;19.20;79.83;98437.25;4946468;28;20500;-81
2023/06/30 00:40:46;;;;;;;41.22;18.35;;;;;;;19.22;79.76;98440.44;4962087;28;20031;-81
2023/06/30 00:43:12;;;;;;;44.72;19.58;;;;;;;19.22;79.98;98435.00;4960059;28;20069;-82
2023/06/30 00:45:37;;;;;;;40.95;18.75;;;;;;;19.15;79.85;98423.06;4956238;28;20038;-81
2023/06/30 00:48:03;;;;;;;42.55;19.45;;;;;;;19.27;79.70;98432.16;4960559;28;20566;-82
2023/06/30 00:50:29;;;;;;;44.50;18.35;;;;;;;19.27;79.46;98429.47;4959944;28;20027;-82
2023/06/30 00:52:55;;;;;;;31.35;17.25;;;;;;;19.28;79.62;98439.19;4964239;28;20034;-82
2023/06/30 00:55:21;;;;;;;43.03;17.88;;;;;;;19.19;79.92;98438.38;4965777;28;20492;-82
2023/06/30 00:57:46;;;;;;;39.10;17.77;;;;;;;19.29;79.97;98423.72;4964896;28;20066;-82
2023/06/30 01:00:12;;;;;;;32.53;17.42;;;;;;;19.27;79.74;98407.00;4963245;28;20078;-81
2023/06/30 01:03:01;;;;;;;31.15;17.80;;;;;;;19.27;79.90;98415.94;4968215;28;20041;-81
2023/06/30 01:05:49;;;;;;;29.73;17.35;;;;;;;19.28;79.84;98419.44;4964356;28;20038;-81
2023/06/30 01:08:51;;;;;;;35.80;18.85;;;;;;;19.25;80.28;98417.34;4959204;28;20038;-82
2023/06/30 01:11:19;;;;;;;28.92;17.67;;;;;;;19.25;80.16;98414.66;4949838;28;20054;-82
2023/06/30 01:13:45;;;;;;;29.10;19.52;;;;;;;19.18;80.62;98407.00;4958576;28;20039;-82
2023/06/30 01:16:12;;;;;;;33.10;19.60;;;;;;;19.29;80.31;98429.94;4951217;28;20031;-81
2023/06/30 01:18:41;;;;;;;43.97;19.60;;;;;;;19.14;80.40;98424.16;4958603;28;20039;-82
2023/06/30 01:21:12;;;;;;;30.92;18.23;;;;;;;19.18;80.98;98411.59;4959460;28;20030;-82
2023/06/30 01:23:45;;;;;;;35.80;18.50;;;;;;;19.18;81.01;98422.41;4945277;28;20061;-82
2023/06/30 01:26:11;;;;;;;33.90;18.80;;;;;;;18.79;82.38;98419.75;4953505;28;20059;-82
2023/06/30 01:28:37;;;;;;;41.45;21.90;;;;;;;18.87;82.03;98414.38;4959265;28;20150;-81
2023/06/30 01:31:08;;;;;;;37.10;18.15;;;;;;;18.57;85.09;98415.19;4947833;28;20035;-82
2023/06/30 01:33:35;;;;;;;33.72;18.40;;;;;;;18.92;82.97;98402.63;4963646;28;20542;-81
2023/06/30 01:36:01;;;;;;;36.85;22.50;;;;;;;18.74;83.00;98400.97;4964878;28;20043;-82
2023/06/30 01:38:27;;;;;;;36.45;21.10;;;;;;;18.54;84.46;98403.09;4952818;28;20440;-81
2023/06/30 01:40:52;;;;;;;38.67;22.08;;;;;;;18.16;86.01;98399.19;4964327;28;20323;-81
2023/06/30 01:43:18;;;;;;;29.90;18.35;;;;;;;18.46;84.57;98394.94;4965875;28;20035;-81
2023/06/30 01:45:44;;;;;;;32.85;21.00;;;;;;;18.20;85.02;98393.97;4966070;28;20505;-81
2023/06/30 01:48:09;;;;;;;30.55;18.70;;;;;;;18.85;84.22;98411.19;4948745;28;20035;-82
2023/06/30 01:50:36;;;;;;;33.30;18.58;;;;;;;19.25;82.12;98401.13;4965208;28;20027;-81
2023/06/30 01:53:01;;;;;;;27.50;18.70;;;;;;;19.27;82.12;98413.22;4960703;28;20067;-82
2023/06/30 01:55:27;;;;;;;28.98;18.33;;;;;;;19.11;82.18;98416.69;4964848;28;20070;-81
2023/06/30 01:57:52;;;;;;;29.50;16.75;;;;;;;19.36;81.67;98418.69;4966596;28;20399;-82
2023/06/30 02:00:18;;;;;;;30.48;19.83;;;;;;;18.78;83.44;98423.56;4966729;28;20086;-82
2023/06/30 02:02:43;;;;;;;28.20;19.55;;;;;;;19.05;82.58;98409.81;4965267;28;20038;-81
2023/06/30 02:05:09;;;;;;;32.03;19.52;;;;;;;19.29;81.83;98421.03;4969302;28;20476;-81
2023/06/30 02:07:34;;;;;;;42.13;19.35;;;;;;;19.30;81.18;98393.66;4958431;28;20074;-83
2023/06/30 02:10:00;;;;;;;29.67;17.98;;;;;;;19.30;81.04;98406.41;4952298;28;20538;-81
2023/06/30 02:12:25;;;;;;;33.75;18.98;;;;;;;19.27;81.44;98394.28;4968641;28;20402;-81
2023/06/30 02:14:50;;;;;;;31.40;18.20;;;;;;;19.29;81.19;98386.63;4951933;28;20090;-82
2023/06/30 02:17:16;;;;;;;33.67;18.70;;;;;;;19.24;81.57;98386.78;4966695;28;20038;-82
2023/06/30 02:19:41;;;;;;;28.25;19.02;;;;;;;19.18;81.69;98373.72;4948004;28;20114;-82
2023/06/30 02:22:07;;;;;;;33.15;19.77;;;;;;;19.23;81.29;98382.50;4956898;28;20038;-82
2023/06/30 02:24:33;;;;;;;26.05;17.90;;;;;;;19.23;81.26;98401.44;4956260;28;20035;-82
2023/06/30 02:26:59;;;;;;;30.05;18.38;;;;;;;19.23;81.62;98397.94;4964309;28;20090;-82
2023/06/30 02:29:24;;;;;;;33.20;19.00;;;;;;;19.20;81.75;98406.66;4960111;28;20039;-82
2023/06/30 02:31:50;;;;;;;35.05;19.73;;;;;;;18.91;81.91;98393.72;4944912;28;20042;-82
2023/06/30 02:34:15;;;;;;;31.77;18.75;;;;;;;18.95;82.29;98389.28;4945123;29;20535;-82
2023/06/30 02:36:40;;;;;;;36.05;19.58;;;;;;;19.13;81.60;98400.94;4935167;28;20043;-82
2023/06/30 02:39:06;;;;;;;44.95;19.90;;;;;;;19.25;81.59;98406.53;4946749;28;20113;-82
2023/06/30 02:41:31;;;;;;;32.65;19.63;;;;;;;19.13;81.74;98393.59;4961096;28;20050;-82
2023/06/30 02:43:56;;;;;;;37.40;20.08;;;;;;;19.08;81.63;98404.59;4948330;28;20034;-82
2023/06/30 02:46:22;;;;;;;29.23;19.50;;;;;;;19.00;82.17;98418.88;4960873;28;20031;-82
2023/06/30 02:48:47;;;;;;;32.17;21.02;;;;;;;18.98;82.16;98423.03;4963483;28;20227;-82
2023/06/30 02:51:13;;;;;;;35.65;20.10;;;;;;;19.04;82.33;98414.44;4951877;28;20041;-81
2023/06/30 02:53:38;;;;;;;36.65;20.38;;;;;;;19.04;82.99;98405.53;4951330;28;20035;-82
2023/06/30 02:56:04;;;;;;;41.25;20.23;;;;;;;19.03;82.05;98402.03;4950143;28;20503;-82
2023/06/30 02:58:30;;;;;;;35.58;20.00;;;;;;;19.04;82.21;98398.22;4966530;28;20419;-82
2023/06/30 03:00:56;;;;;;;44.25;22.75;;;;;;;19.10;81.99;98393.44;4967717;28;20030;-81
2023/06/30 03:03:21;;;;;;;42.60;19.45;;;;;;;19.20;81.70;98404.78;4962216;28;20027;-81
2023/06/30 03:05:47;;;;;;;47.22;22.33;;;;;;;19.22;81.67;98401.78;4967640;28;20031;-83
2023/06/30 03:08:12;;;;;;;38.20;22.75;;;;;;;19.10;81.96;98404.28;4962230;28;20031;-82
2023/06/30 03:10:38;;;;;;;38.97;21.98;;;;;;;19.07;82.15;98405.69;4971037;28;20027;-82
2023/06/30 03:13:03;;;;;;;36.20;21.27;;;;;;;19.05;82.43;98399.78;4938999;28;20082;-81
2023/06/30 03:15:28;;;;;;;41.50;21.60;;;;;;;19.11;81.83;98390.41;4954790;28;20042;-82
2023/06/30 03:17:55;;;;;;;37.75;20.85;;;;;;;19.00;82.41;98391.03;4969202;28;20085;-82
2023/06/30 03:20:21;;;;;;;35.47;20.23;;;;;;;19.01;82.28;98390.72;4939455;28;20027;-82
2023/06/30 03:22:46;;;;;;;32.65;21.40;;;;;;;19.05;82.47;98375.44;4961375;28;20030;-82
2023/06/30 03:25:12;;;;;;;33.85;20.20;;;;;;;19.12;81.94;98370.38;4964160;28;20046;-82
2023/06/30 03:27:37;;;;;;;34.50;21.20;;;;;;;19.10;82.22;98375.31;4960414;28;20043;-82
2023/06/30 03:30:04;;;;;;;32.55;19.63;;;;;;;19.08;81.98;98369.41;4963018;28;20085;-82
2023/06/30 03:32:30;;;;;;;41.90;21.58;;;;;;;18.49;84.86;98387.03;4944160;28;20038;-82
2023/06/30 03:34:56;;;;;;;37.83;21.27;;;;;;;18.55;84.66;98380.38;4962120;28;20034;-82
2023/06/30 03:37:21;;;;;;;37.85;21.70;;;;;;;18.89;84.01;98390.53;4954396;28;20484;-82
2023/06/30 03:39:46;;;;;;;38.25;21.38;;;;;;;19.11;83.54;98390.41;4957672;28;20341;-82
2023/06/30 03:42:12;;;;;;;36.17;21.13;;;;;;;19.01;83.32;98379.91;4962902;28;20081;-83
2023/06/30 03:44:37;;;;;;;34.00;20.33;;;;;;;19.12;83.43;98386.63;4961015;28;20034;-82
2023/06/30 03:47:03;;;;;;;37.25;22.60;;;;;;;19.08;83.12;98391.06;4946902;28;20031;-82
2023/06/30 03:49:28;;;;;;;29.27;20.67;;;;;;;19.04;83.43;98383.88;4952726;28;20125;-82
2023/06/30 03:51:53;;;;;;;35.60;22.25;;;;;;;19.07;83.55;98397.56;4957876;28;20097;-82
2023/06/30 03:54:19;;;;;;;40.13;23.42;;;;;;;19.05;83.76;98401.69;4955521;28;20492;-81
2023/06/30 03:56:44;;;;;;;39.47;22.80;;;;;;;18.95;84.53;98402.00;4950516;28;20026;-82
2023/06/30 03:59:09;;;;;;;46.63;24.45;;;;;;;19.01;84.35;98412.38;4964784;28;20089;-83
2023/06/30 04:01:35;;;;;;;41.90;24.83;;;;;;;18.99;84.28;98411.06;4966310;28;20037;-83
2023/06/30 04:04:02;;;;;;;40.00;24.83;;;;;;;18.98;84.94;98415.69;4963045;28;20113;-84
2023/06/30 04:06:27;;;;;;;47.97;26.00;;;;;;;18.85;85.10;98400.38;4963384;28;20035;-83
2023/06/30 04:08:53;;;;;;;44.92;25.08;;;;;;;18.94;84.77;98409.31;4956871;28;20050;-83
2023/06/30 04:11:18;;;;;;;43.83;27.98;;;;;;;18.66;85.68;98399.81;4951027;28;20097;-83
2023/06/30 04:13:43;;;;;;;48.70;29.80;;;;;;;17.85;90.54;98380.25;4949121;28;20034;-83
2023/06/30 04:16:09;;;;;;;45.20;27.80;;;;;;;17.94;90.64;98374.91;4960736;28;20031;-82
2023/06/30 04:18:34;;;;;;;44.90;26.83;;;;;;;18.70;87.15;98373.75;4956871;28;20039;-83
2023/06/30 04:21:00;;;;;;;48.78;27.63;;;;;;;18.75;85.78;98370.09;4942865;28;20370;-83
2023/06/30 04:23:25;;;;;;;47.17;26.40;;;;;;;18.80;85.88;98373.47;4955174;28;20042;-82
2023/06/30 04:25:50;;;;;;;39.65;25.00;;;;;;;19.02;85.78;98392.34;4935996;28;20053;-83
2023/06/30 04:28:16;;;;;;;45.55;27.65;;;;;;;19.00;85.95;98391.81;4957323;28;20031;-82
2023/06/30 04:30:42;;;;;;;47.90;27.58;;;;;;;18.98;85.42;98382.44;4971064;28;20062;-82
2023/06/30 04:33:07;;;;;;;42.22;25.80;;;;;;;19.06;84.88;98382.47;4947682;28;20494;-82
2023/06/30 04:35:33;;;;;;;44.65;27.08;;;;;;;19.09;85.35;98381.81;4962325;28;20055;-83
2023/06/30 04:37:58;;;;;;;48.58;27.45;;;;;;;19.00;85.51;98385.63;4961695;28;20480;-83
2023/06/30 04:40:23;;;;;;;41.33;26.08;;;;;;;19.00;84.99;98378.28;4960979;28;20031;-83
2023/06/30 04:42:49;;;;;;;43.47;26.27;;;;;;;19.13;84.99;98390.13;4945632;28;20121;-83
2023/06/30 04:45:14;;;;;;;40.95;25.77;;;;;;;18.95;85.30;98374.94;4958142;28;20034;-83
2023/06/30 04:47:40;;;;;;;42.08;25.35;;;;;;;19.02;85.49;98388.81;4966307;28;20081;-82
2023/06/30 04:50:06;;;;;;;43.85;26.50;;;;;;;19.03;84.97;98377.69;4939853;28;20078;-83
2023/06/30 04:52:31;;;;;;;43.70;26.35;;;;;;;19.11;84.69;98376.88;4959943;28;20027;-82
2023/06/30 04:54:57;;;;;;;40.22;26.95;;;;;;;19.02;84.72;98369.88;4957404;28;20018;-83
2023/06/30 04:57:23;;;;;;;43.45;27.23;;;;;;;18.93;85.36;98375.28;4933420;28;20507;-83
2023/06/30 04:59:52;;;;;;;47.90;25.85;;;;;;;19.04;84.92;98373.06;4964204;28;20062;-83
2023/06/30 05:02:17;;;;;;;40.72;25.80;;;;;;;19.12;84.59;98370.38;4967242;28;20445;-82
2023/06/30 05:04:44;;;;;;;41.58;27.95;;;;;;;19.13;84.82;98363.06;4947999;28;20031;-83
2023/06/30 05:07:09;;;;;;;41.72;26.63;;;;;;;18.92;85.32;98359.34;4946886;28;20040;-82
2023/06/30 05:09:35;;;;;;;35.80;25.42;;;;;;;19.06;85.37;98374.34;4951946;28;20042;-82
2023/06/30 05:12:02;;;;;;;36.95;24.58;;;;;;;19.18;84.83;98377.22;4965981;28;20491;-82
2023/06/30 05:14:28;;;;;;;40.72;25.08;;;;;;;18.87;85.42;98340.56;4963403;28;20436;-82
2023/06/30 05:16:53;;;;;;;37.65;25.58;;;;;;;19.09;85.44;98392.63;4956193;28;20117;-82
2023/06/30 05:19:18;;;;;;;44.22;25.55;;;;;;;19.16;85.25;98384.06;4965702;28;20048;-82
2023/06/30 05:21:44;;;;;;;41.60;24.95;;;;;;;19.15;84.99;98385.19;4953673;28;20118;-82
2023/06/30 05:24:09;;;;;;;42.00;24.85;;;;;;;19.18;84.84;98377.22;4950555;28;20043;-83
2023/06/30 05:26:34;;;;;;;36.38;25.73;;;;;;;19.14;84.92;98373.56;4967325;28;20027;-83
2023/06/30 05:29:00;;;;;;;43.03;26.10;;;;;;;18.95;85.89;98375.75;4970871;28;20031;-82
2023/06/30 05:31:25;;;;;;;39.92;26.77;;;;;;;18.97;85.65;98362.72;4967670;28;20518;-82
2023/06/30 05:33:51;;;;;;;40.10;27.25;;;;;;;19.18;85.38;98384.53;4951815;28;20106;-82
2023/06/30 05:36:16;;;;;;;42.30;28.02;;;;;;;19.06;85.21;98365.44;4973701;28;20472;-82
2023/06/30 05:38:41;;;;;;;44.05;26.98;;;;;;;18.84;86.39;98382.56;4960120;28;20043;-82
2023/06/30 05:41:10;;;;;;;45.45;26.08;;;;;;;19.01;85.51;98379.91;4950581;28;20031;-82
2023/06/30 05:43:35;;;;;;;48.03;28.80;;;;;;;19.04;85.07;98384.69;4949033;28;20030;-83
2023/06/30 05:46:00;;;;;;;44.88;30.27;;;;;;;19.06;84.98;98387.06;4931323;29;20038;-82
2023/06/30 05:48:26;;;;;;;43.00;27.42;;;;;;;18.99;85.22;98394.84;4966997;28;20093;-82
2023/06/30 05:50:51;;;;;;;47.70;31.25;;;;;;;18.63;87.03;98368.78;4960669;28;20054;-84
2023/06/30 05:53:16;;;;;;;56.53;32.55;;;;;;;18.37;89.01;98373.25;4949475;28;20031;-83
2023/06/30 05:55:42;;;;;;;45.38;29.48;;;;;;;18.80;86.79;98372.69;4968059;28;20442;-84
2023/06/30 05:58:07;;;;;;;43.50;26.88;;;;;;;18.83;86.43;98378.25;4964246;28;20041;-83
2023/06/30 06:00:32;;;;;;;45.95;28.73;;;;;;;18.36;89.75;98362.75;4963183;28;20031;-83
2023/06/30 06:02:58;;;;;;;48.17;30.42;;;;;;;18.66;87.88;98379.00;4955514;28;20459;-83
2023/06/30 06:05:23;;;;;;;46.10;29.85;;;;;;;18.86;86.57;98369.53;4967645;28;20039;-83
2023/06/30 06:07:49;;;;;;;43.75;27.38;;;;;;;18.92;87.08;98383.69;4970945;28;20054;-83
2023/06/30 06:10:14;;;;;;;49.75;29.77;;;;;;;18.73;87.90;98377.75;4965706;28;20069;-83
2023/06/30 06:12:39;;;;;;;44.78;28.73;;;;;;;18.48;88.45;98363.00;4970278;28;20117;-82
2023/06/30 06:15:09;;;;;;;45.78;29.00;;;;;;;18.43;89.60;98377.44;4967654;28;20035;-82
2023/06/30 06:17:34;;;;;;;48.05;32.88;;;;;;;18.49;88.91;98391.63;4962331;28;20121;-82
2023/06/30 06:20:00;;;;;;;48.45;30.30;;;;;;;18.80;87.48;98391.59;4961778;28;20023;-83
2023/06/30 06:22:25;;;;;;;46.72;28.27;;;;;;;18.80;87.49;98394.31;4960303;28;20050;-83
2023/06/30 06:24:50;;;;;;;47.60;30.17;;;;;;;18.95;86.80;98404.69;4940642;29;20031;-83
2023/06/30 06:27:16;;;;;;;55.15;33.65;;;;;;;18.76;88.05;98404.97;4975390;28;20038;-83
2023/06/30 06:29:41;;;;;;;47.75;29.33;;;;;;;18.87;86.77;98408.19;4955567;28;20054;-83
2023/06/30 06:32:07;;;;;;;58.30;31.23;;;;;;;18.81;87.30;98407.50;4959489;28;20098;-83
2023/06/30 06:34:33;;;;;;;47.40;30.90;;;;;;;18.86;87.01;98414.69;4962620;28;20049;-83
2023/06/30 06:36:58;;;;;;;55.92;33.38;;;;;;;18.69;87.63;98405.41;4961537;28;20114;-82
2023/06/30 06:39:24;;;;;;;52.20;31.65;;;;;;;18.58;88.28;98416.81;4949482;28;20484;-82
2023/06/30 06:41:49;;;;;;;52.08;30.90;;;;;;;18.78;87.05;98413.56;4963312;28;20467;-82
2023/06/30 06:44:15;;;;;;;48.65;30.13;;;;;;;18.93;86.39;98415.03;4969841;28;20073;-83
2023/06/30 06:46:40;;;;;;;46.35;30.35;;;;;;;18.89;86.41;98416.78;4966569;28;20092;-83
2023/06/30 06:49:05;;;;;;;54.80;35.03;;;;;;;18.66;87.08;98413.34;4959389;28;20031;-83
2023/06/30 06:51:33;;;;;;;51.78;30.95;;;;;;;18.57;88.22;98412.50;4952586;28;20031;-84
2023/06/30 06:53:58;;;;;;;49.97;32.58;;;;;;;18.27;89.00;98399.75;4936916;29;20034;-83
2023/06/30 06:56:23;;;;;;;45.63;29.17;;;;;;;18.64;86.85;98418.25;4956432;28;20052;-83
2023/06/30 06:58:49;;;;;;;40.47;23.67;;;;;;;18.43;88.49;98427.97;4966154;28;20027;-82
2023/06/30 07:01:14;;;;;;;34.63;21.23;;;;;;;18.58;87.08;98398.69;4964080;28;20094;-83
2023/06/30 07:03:40;;;;;;;23.52;14.73;;;;;;;18.74;86.35;98425.31;4938669;28;20029;-83
2023/06/30 07:06:06;;;;;;;12.80;7.63;;;;;;;18.49;87.63;98421.38;4972855;28;20499;-83
2023/06/30 07:08:35;;;;;;;7.38;5.72;;;;;;;18.22;89.11;98429.56;4963750;28;20219;-83
2023/06/30 07:11:04;;;;;;;6.95;5.03;;;;;;;17.61;91.68;98433.72;4968849;28;20034;-84
2023/06/30 07:13:29;;;;;;;14.13;7.85;;;;;;;17.25;94.15;98436.34;4966762;28;20035;-83
2023/06/30 07:15:55;;;;;;;8.60;5.80;;;;;;;17.75;91.93;98423.69;4968348;28;20037;-84
2023/06/30 07:18:21;;;;;;;7.88;5.80;;;;;;;17.58;92.16;98420.81;4970670;28;20070;-82
2023/06/30 07:20:52;;;;;;;7.82;5.32;;;;;;;17.51;93.56;98425.84;4965993;28;20049;-81
2023/06/30 07:23:18;;;;;;;10.18;4.93;;;;;;;17.99;90.12;98420.69;4971974;28;20038;-82
2023/06/30 07:25:44;;;;;;;6.82;5.03;;;;;;;17.55;92.40;98429.53;4964964;28;20049;-81
2023/06/30 07:28:09;;;;;;;7.53;5.53;;;;;;;17.21;92.93;98424.56;4961062;28;20027;-81
2023/06/30 07:30:36;;;;;;;8.40;5.70;;;;;;;16.86;95.36;98437.97;4970903;28;20037;-81
2023/06/30 07:33:01;;;;;;;6.63;4.90;;;;;;;16.78;96.13;98425.16;4963186;28;20050;-81
2023/06/30 07:35:27;;;;;;;4.95;4.45;;;;;;;17.57;94.05;98427.34;4948112;28;20027;-81
2023/06/30 07:37:52;;;;;;;4.00;3.47;;;;;;;17.21;93.40;98431.88;4967066;28;20117;-82
2023/06/30 07:40:18;;;;;;;5.82;3.55;;;;;;;16.89;96.06;98448.13;4959881;28;20030;-81
2023/06/30 07:42:44;;;;;;;3.70;3.40;;;;;;;17.25;94.77;98447.13;4967941;28;20065;-81
2023/06/30 07:45:12;;;;;;;3.72;3.15;;;;;;;16.44;96.24;98442.47;4966714;28;20058;-81
2023/06/30 07:47:40;;;;;;;4.68;3.80;;;;;;;16.37;97.03;98447.44;4971786;28;20064;-82
2023/06/30 07:50:11;;;;;;;4.85;4.13;;;;;;;16.57;97.03;98440.94;4964516;28;20078;-82
2023/06/30 07:52:39;;;;;;;4.05;3.65;;;;;;;16.56;95.96;98447.41;4962848;28;20039;-82
2023/06/30 07:55:05;;;;;;;7.28;4.63;;;;;;;16.16;96.83;98435.38;4941216;28;20131;-82
2023/06/30 07:57:30;;;;;;;10.10;5.05;;;;;;;15.89;98.44;98423.72;4954510;28;20055;-82
2023/06/30 07:59:56;;;;;;;5.20;4.70;;;;;;;15.69;99.02;98439.09;4967384;28;20113;-82
2023/06/30 08:02:21;;;;;;;5.18;4.65;;;;;;;16.26;99.35;98455.97;4952030;28;20078;-82
2023/06/30 08:04:53;;;;;;;5.53;5.07;;;;;;;15.92;98.82;98442.78;5089083;27;20394;-82
2023/06/30 08:07:19;;;;;;;4.43;4.03;;;;;;;16.03;99.47;98446.13;5094260;28;20058;-82
2023/06/30 08:09:44;;;;;;;7.55;4.53;;;;;;;15.78;99.21;98458.06;5077145;28;20399;-82
2023/06/30 08:12:09;;;;;;;6.90;4.60;;;;;;;16.05;99.06;98455.50;5052667;28;20036;-82
2023/06/30 08:14:35;;;;;;;5.93;3.70;;;;;;;16.38;98.19;98464.41;5069604;28;20021;-82
2023/06/30 08:17:02;;;;;;;5.45;4.28;;;;;;;15.75;97.19;98462.13;5063235;28;20431;-82
2023/06/30 08:19:27;;;;;;;4.68;4.28;;;;;;;15.63;97.91;98467.16;5057965;28;20059;-82
2023/06/30 08:21:52;;;;;;;5.30;4.80;;;;;;;15.78;96.60;98466.13;5061930;28;20032;-82
2023/06/30 08:24:18;;;;;;;5.80;5.30;;;;;;;16.24;95.28;98463.56;5050137;28;20052;-82
2023/06/30 08:26:43;;;;;;;4.68;4.28;;;;;;;15.92;95.71;98456.25;5063534;28;20040;-82
2023/06/30 08:29:08;;;;;;;5.53;4.85;;;;;;;15.94;95.86;98459.44;5080986;28;20028;-82
2023/06/30 08:31:34;;;;;;;5.30;4.90;;;;;;;16.31;94.52;98472.06;5103903;28;20033;-82
2023/06/30 08:33:59;;;;;;;5.53;4.95;;;;;;;16.49;93.03;98465.81;5086841;28;20050;-82
2023/06/30 08:36:24;;;;;;;5.65;5.15;;;;;;;16.28;94.44;98451.91;5080222;28;20028;-82
2023/06/30 08:38:50;;;;;;;5.15;4.65;;;;;;;16.40;95.72;98463.00;5044907;28;20024;-82
2023/06/30 08:41:15;;;;;;;6.22;5.63;;;;;;;16.50;93.36;98464.75;5104792;28;20067;-82
2023/06/30 08:43:41;;;;;;;5.88;5.38;;;;;;;16.59;94.51;98467.56;5074777;28;20023;-82
2023/06/30 08:46:07;;;;;;;6.68;6.05;;;;;;;16.60;93.42;98466.47;5084692;28;20040;-82
2023/06/30 08:48:32;;;;;;;6.05;5.28;;;;;;;16.84;92.36;98467.13;5080320;28;20023;-82
2023/06/30 08:50:59;;;;;;;7.55;6.20;;;;;;;16.61;92.40;98476.16;5063397;28;20365;-82
2023/06/30 08:53:27;;;;;;;7.32;6.70;;;;;;;16.33;93.77;98476.06;5086908;28;20472;-82
2023/06/30 08:55:56;;;;;;;6.35;5.75;;;;;;;16.49;94.79;98469.31;5072062;28;20058;-82
2023/06/30 08:58:21;;;;;;;7.07;6.43;;;;;;;16.35;94.00;98471.19;5075446;28;20361;-82
2023/06/30 09:00:47;;;;;;;8.13;6.40;;;;;;;16.22;93.93;98471.13;5086245;28;20041;-81
2023/06/30 09:03:13;;;;;;;7.22;6.53;;;;;;;16.57;93.31;98472.44;5076628;28;20033;-81
2023/06/30 09:05:39;;;;;;;7.00;6.43;;;;;;;16.14;95.23;98474.50;5076519;28;20066;-81
2023/06/30 09:08:12;;;;;;;7.13;6.00;;;;;;;16.57;95.00;98461.69;5073927;28;20506;-81
2023/06/30 09:10:38;;;;;;;9.70;6.15;;;;;;;16.41;93.26;98470.00;5074846;28;20037;-81
2023/06/30 09:13:04;;;;;;;7.05;6.35;;;;;;;16.14;94.00;98469.88;5078593;28;20049;-81
2023/06/30 09:15:30;;;;;;;8.15;6.43;;;;;;;16.40;94.11;98478.38;5069743;28;20049;-81
2023/06/30 09:17:56;;;;;;;6.53;5.80;;;;;;;16.53;93.63;98476.84;5079965;28;20094;-81
2023/06/30 09:20:22;;;;;;;6.75;6.05;;;;;;;16.16;93.95;98477.69;5069077;28;20056;-81
2023/06/30 09:22:47;;;;;;;6.35;5.63;;;;;;;16.35;93.33;98473.88;5068223;28;20082;-81
2023/06/30 09:25:25;;;;;;;6.82;5.55;;;;;;;16.52;92.76;98484.13;5069829;28;20066;-81
2023/06/30 09:27:50;;;;;;;7.07;5.97;;;;;;;16.89;92.47;98485.88;5063922;28;20111;-82
2023/06/30 09:30:16;;;;;;;6.15;5.55;;;;;;;17.00;90.26;98490.78;5057788;28;20132;-81
2023/06/30 09:32:42;;;;;;;5.03;4.53;;;;;;;17.32;90.71;98484.50;5093932;28;20537;-81
2023/06/30 09:35:08;;;;;;;6.00;4.85;;;;;;;17.03;90.95;98481.31;5093168;28;20475;-82
2023/06/30 09:37:43;;;;;;;5.30;4.90;;;;;;;17.67;88.01;98491.09;5074270;28;20020;-82
2023/06/30 09:40:14;;;;;;;5.28;4.88;;;;;;;17.85;87.42;98482.84;5061119;28;20120;-82
2023/06/30 09:42:55;;;;;;;6.03;5.47;;;;;;;17.72;87.13;98489.06;5074857;28;20036;-81
2023/06/30 09:45:21;;;;;;;7.68;6.82;;;;;;;17.77;87.20;98493.56;5080876;28;20032;-82
2023/06/30 09:47:53;;;;;;;8.93;6.88;;;;;;;17.72;86.64;98493.66;5067675;28;20043;-82
2023/06/30 09:50:30;;;;;;;8.73;6.50;;;;;;;17.84;85.87;98486.63;5064033;28;20178;-82
2023/06/30 09:52:55;;;;;;;7.82;7.05;;;;;;;17.54;87.23;98495.41;5061393;28;20032;-82
2023/06/30 09:55:21;;;;;;;7.05;6.35;;;;;;;17.73;86.33;98479.09;5068552;28;20260;-83
2023/06/30 09:57:46;;;;;;;7.78;6.35;;;;;;;17.76;86.33;98495.47;5050683;28;20032;-83
2023/06/30 10:00:16;;;;;;;11.00;7.05;;;;;;;17.92;85.13;98495.94;5068344;28;20037;-83
2023/06/30 10:02:43;;;;;;;7.47;6.53;;;;;;;17.72;85.56;98499.06;5063520;28;20050;-83
2023/06/30 10:05:11;;;;;;;8.98;7.05;;;;;;;17.87;85.33;98504.94;5055786;28;20025;-83
2023/06/30 10:07:40;;;;;;;12.45;6.93;;;;;;;17.76;85.78;98489.25;5058619;28;20534;-83
2023/06/30 10:10:09;;;;;;;19.67;8.38;;;;;;;17.86;85.90;98500.66;5063520;28;20078;-83
2023/06/30 10:12:37;;;;;;;15.35;7.50;;;;;;;17.84;86.25;98507.47;5051401;28;20052;-83
2023/06/30 10:15:05;;;;;;;9.27;7.55;;;;;;;17.57;86.77;98507.50;5061778;28;20028;-83
2023/06/30 10:17:31;;;;;;;9.85;7.63;;;;;;;17.89;85.34;98500.03;5051743;28;20500;-83
2023/06/30 10:19:57;;;;;;;7.05;6.32;;;;;;;17.62;86.35;98502.81;5073453;28;20055;-82
2023/06/30 10:22:22;;;;;;;7.32;6.63;;;;;;;17.74;86.48;98500.38;5074803;28;20046;-83
2023/06/30 10:24:48;;;;;;;7.78;6.10;;;;;;;17.94;85.24;98496.41;5072264;28;20067;-82
2023/06/30 10:27:18;;;;;;;5.65;5.15;;;;;;;17.85;86.45;98492.84;5054442;28;20492;-82
2023/06/30 10:29:45;;;;;;;5.35;4.85;;;;;;;17.93;85.55;98479.41;5066526;28;20032;-83
2023/06/30 10:32:11;;;;;;;4.93;4.40;;;;;;;17.73;86.58;98473.69;5064553;28;20433;-83
2023/06/30 10:34:36;;;;;;;4.13;3.83;;;;;;;17.88;86.63;98479.56;5065879;28;20213;-82
2023/06/30 10:37:03;;;;;;;4.35;4.05;;;;;;;18.18;84.52;98482.63;5071921;28;20495;-83
2023/06/30 10:39:30;;;;;;;3.88;3.53;;;;;;;18.10;85.10;98486.88;5051546;28;20033;-82
2023/06/30 10:41:59;;;;;;;7.13;3.40;;;;;;;18.19;84.83;98495.03;5070913;28;20029;-82
2023/06/30 10:44:38;;;;;;;4.05;3.10;;;;;;;18.01;85.55;98494.09;5053298;28;20025;-82
2023/06/30 10:47:04;;;;;;;4.78;3.70;;;;;;;17.88;86.73;98486.84;5061374;28;20106;-82
2023/06/30 10:49:32;;;;;;;2.97;2.78;;;;;;;18.33;84.03;98484.97;5062845;28;20151;-82
2023/06/30 10:52:03;;;;;;;4.43;3.38;;;;;;;18.21;84.89;98474.72;5076702;28;20119;-82
2023/06/30 10:54:37;;;;;;;2.90;2.60;;;;;;;18.32;84.59;98486.09;5073083;28;20021;-82
2023/06/30 10:57:07;;;;;;;2.88;2.67;;;;;;;18.60;83.05;98492.97;5078806;28;20052;-82
2023/06/30 10:59:41;;;;;;;3.20;2.90;;;;;;;18.45;83.92;98493.38;5067898;28;20056;-82
2023/06/30 11:02:19;;;;;;;3.58;3.28;;;;;;;18.43;84.03;98490.13;5072982;28;20036;-82
2023/06/30 11:04:46;;;;;;;3.60;3.30;;;;;;;18.41;83.74;98478.84;5060323;28;20032;-82
2023/06/30 11:07:18;;;;;;;3.47;3.17;;;;;;;18.24;84.70;98484.91;5051348;28;20501;-82
2023/06/30 11:09:49;;;;;;;3.00;2.80;;;;;;;18.57;83.02;98478.16;5057478;28;20080;-82
2023/06/30 11:12:15;;;;;;;3.08;2.80;;;;;;;18.59;83.23;98485.97;5065510;28;20411;-82
2023/06/30 11:15:01;;;;;;;2.72;2.53;;;;;;;18.47;84.28;98478.44;5055783;28;20082;-82
2023/06/30 11:17:47;;;;;;;3.05;2.78;;;;;;;18.48;83.46;98482.72;5052479;28;20446;-81
2023/06/30 11:20:14;;;;;;;2.92;2.72;;;;;;;18.66;82.37;98479.03;5060020;28;20028;-81